Terminal Aerodrome Forecast
Issued by NWS Jackson, MS

Home | Current Version | Previous Version | Text Only | Print | Product List | Glossary On
Versions: 1 2 3 4 5 6 7 8 9 10 11 12
000
FTUS44 KMEG 291700
TAFTUP
TAF
KTUP 291731Z 2918/3018 19008KT P6SM SCT060 SCT250
     FM300000 18003KT P6SM SCT250
     FM301000 21004KT 6SM BR VCSH BKN040
      TEMPO 3011/3015 -SHRA
     FM301500 20005KT P6SM -SHRA VCTS SCT045CB BKN060=

USA.gov is the U.S. government's official web portal to all federal, state and local government web resources and services.